Time;durP1;ratioP1;P1;durP2;ratioP2;P2;SDS_P1;SDS_P2;PMS_P1;PMS_P2;Temp;Humidity;BMP_temperature;BMP_pressure;BME280_temperature;BME280_humidity;BME280_pressure;Samples;Min_cycle;Max_cycle;Signal;HPM_P1;HPM_P2
2021/06/15 00:00:07;;;;;;;8.88;1.13;;;15.60;98.60;;;;;;4995617;28;20053;-81
2021/06/15 00:02:33;;;;;;;4.20;0.85;;;15.60;98.50;;;;;;4998860;28;20039;-81
2021/06/15 00:04:59;;;;;;;8.20;0.93;;;15.50;98.50;;;;;;4996910;28;20054;-81
2021/06/15 00:07:25;;;;;;;11.07;2.10;;;15.60;98.60;;;;;;4994594;28;20038;-81
2021/06/15 00:09:52;;;;;;;4.57;0.90;;;15.50;98.60;;;;;;4994893;28;20094;-81
2021/06/15 00:12:19;;;;;;;6.10;1.33;;;15.40;98.60;;;;;;4988896;28;20043;-81
2021/06/15 00:14:45;;;;;;;6.22;1.10;;;15.40;98.70;;;;;;4995102;28;20089;-81
2021/06/15 00:17:11;;;;;;;5.95;0.90;;;15.40;98.70;;;;;;4995057;28;20326;-81
2021/06/15 00:19:38;;;;;;;5.85;1.00;;;15.40;98.90;;;;;;4999676;28;20113;-81
2021/06/15 00:22:04;;;;;;;7.45;0.77;;;15.40;99.00;;;;;;4992760;28;20038;-81
2021/06/15 00:24:42;;;;;;;9.27;0.90;;;15.50;99.10;;;;;;4989881;28;20038;-81
2021/06/15 00:27:11;;;;;;;8.68;0.90;;;15.40;99.10;;;;;;4993201;28;20038;-82
2021/06/15 00:29:37;;;;;;;6.88;1.10;;;15.40;99.10;;;;;;4992638;28;20038;-82
2021/06/15 00:32:04;;;;;;;9.65;1.15;;;15.40;99.30;;;;;;4996687;28;20038;-81
2021/06/15 00:34:30;;;;;;;6.15;0.88;;;15.40;99.30;;;;;;4995905;28;20786;-81
2021/06/15 00:36:58;;;;;;;10.60;1.10;;;15.50;99.30;;;;;;4992027;28;20064;-82
2021/06/15 00:39:35;;;;;;;7.30;1.40;;;15.50;99.40;;;;;;4999379;28;20986;-82
2021/06/15 00:42:00;;;;;;;6.93;1.05;;;15.50;99.40;;;;;;4996533;28;20049;-81
2021/06/15 00:44:26;;;;;;;6.90;1.02;;;15.40;99.40;;;;;;4994602;28;20043;-82
2021/06/15 00:46:52;;;;;;;5.18;1.25;;;15.50;99.30;;;;;;4990877;28;20038;-82
2021/06/15 00:49:24;;;;;;;4.15;0.98;;;15.40;99.20;;;;;;4990999;28;20034;-82
2021/06/15 00:51:50;;;;;;;9.27;1.65;;;15.40;99.30;;;;;;4994676;28;20036;-81
2021/06/15 00:54:15;;;;;;;11.63;0.95;;;15.40;99.30;;;;;;4990178;28;20136;-81
2021/06/15 00:56:41;;;;;;;8.98;1.23;;;15.40;99.40;;;;;;4995321;28;20042;-82
2021/06/15 00:59:07;;;;;;;8.60;1.58;;;15.60;99.50;;;;;;4995967;28;20031;-82
2021/06/15 01:01:33;;;;;;;9.68;1.50;;;15.40;99.40;;;;;;4993299;28;20045;-82
2021/06/15 01:03:58;;;;;;;5.93;1.25;;;15.30;99.40;;;;;;4990359;28;20046;-82
2021/06/15 01:06:48;;;;;;;7.57;1.00;;;15.30;99.50;;;;;;4993845;28;20035;-82
2021/06/15 01:09:43;;;;;;;7.45;1.42;;;15.30;99.50;;;;;;4992094;28;20053;-81
2021/06/15 01:12:34;;;;;;;11.02;1.10;;;15.30;99.50;;;;;;4992856;28;20110;-81
2021/06/15 01:15:10;;;;;;;7.18;1.38;;;15.20;99.50;;;;;;4994893;28;20112;-81
2021/06/15 01:17:57;;;;;;;9.05;1.40;;;15.20;99.60;;;;;;4993342;28;20120;-81
2021/06/15 01:20:37;;;;;;;12.90;2.00;;;15.20;99.70;;;;;;4991237;28;20069;-81
2021/06/15 01:23:30;;;;;;;9.30;1.42;;;15.10;99.70;;;;;;4988539;28;20041;-81
2021/06/15 01:26:20;;;;;;;8.13;0.93;;;15.10;99.70;;;;;;4991552;28;20039;-81
2021/06/15 01:29:09;;;;;;;9.60;1.73;;;15.10;99.70;;;;;;4991699;28;20049;-81
2021/06/15 01:31:47;;;;;;;5.13;1.13;;;15.10;99.80;;;;;;4989909;28;20042;-82
2021/06/15 01:34:23;;;;;;;8.75;1.02;;;15.10;99.90;;;;;;4989237;28;20046;-82
2021/06/15 01:36:59;;;;;;;7.68;1.40;;;15.40;99.90;;;;;;4990467;28;21977;-82
2021/06/15 01:39:28;;;;;;;8.23;1.00;;;15.00;99.90;;;;;;4971443;28;20124;-82
2021/06/15 01:42:13;;;;;;;12.07;1.35;;;15.00;99.90;;;;;;4990698;28;20042;-82
2021/06/15 01:44:40;;;;;;;8.60;1.10;;;15.00;99.90;;;;;;4987405;28;20070;-82
2021/06/15 01:47:14;;;;;;;8.88;1.00;;;15.00;99.90;;;;;;4991076;28;21219;-81
2021/06/15 01:49:54;;;;;;;7.28;1.30;;;15.00;99.90;;;;;;4990855;28;20042;-82
2021/06/15 01:52:25;;;;;;;7.15;1.08;;;15.00;99.90;;;;;;4988934;28;20047;-81
2021/06/15 01:54:51;;;;;;;8.73;0.90;;;15.00;99.90;;;;;;4991147;28;20039;-81
2021/06/15 01:57:19;;;;;;;11.52;1.25;;;14.90;99.90;;;;;;4989410;28;20406;-81
2021/06/15 01:59:46;;;;;;;8.40;1.20;;;15.00;99.90;;;;;;4989038;28;20042;-81
2021/06/15 02:02:14;;;;;;;10.20;1.20;;;14.90;99.90;;;;;;4990484;28;20045;-81
2021/06/15 02:04:46;;;;;;;8.13;1.25;;;15.00;99.90;;;;;;4990645;28;20045;-81
2021/06/15 02:07:19;;;;;;;12.32;1.27;;;15.00;99.90;;;;;;4995718;28;20046;-81
2021/06/15 02:09:46;;;;;;;9.65;1.17;;;15.00;99.90;;;;;;4994209;28;20065;-81
2021/06/15 02:12:15;;;;;;;7.03;1.00;;;15.00;99.90;;;;;;4990245;28;20043;-81
2021/06/15 02:15:01;;;;;;;7.28;1.10;;;15.00;99.90;;;;;;4989438;28;20047;-81
2021/06/15 02:17:30;;;;;;;10.18;2.70;;;15.00;99.90;;;;;;4992603;28;20051;-80
2021/06/15 02:19:58;;;;;;;6.63;1.48;;;15.00;99.90;;;;;;4992853;28;20038;-81
2021/06/15 02:22:24;;;;;;;10.32;1.52;;;14.90;99.90;;;;;;4991127;28;20725;-81
2021/06/15 02:25:11;;;;;;;9.25;1.10;;;15.00;99.90;;;;;;4989845;28;20054;-80
2021/06/15 02:27:57;;;;;;;10.60;1.58;;;14.90;99.90;;;;;;4989008;28;20114;-81
2021/06/15 02:30:24;;;;;;;8.00;1.55;;;14.90;99.90;;;;;;4993014;28;20081;-81
2021/06/15 02:32:51;;;;;;;8.15;2.03;;;14.90;99.90;;;;;;4995986;28;20129;-81
2021/06/15 02:35:22;;;;;;;8.50;1.75;;;15.00;99.90;;;;;;4991298;28;20062;-81
2021/06/15 02:37:56;;;;;;;7.50;1.55;;;14.90;99.90;;;;;;4998651;28;20045;-81
2021/06/15 02:40:26;;;;;;;11.75;1.77;;;15.00;99.90;;;;;;4995572;28;20090;-81
2021/06/15 02:42:54;;;;;;;7.50;1.73;;;14.90;99.90;;;;;;4998495;28;20097;-81
2021/06/15 02:45:25;;;;;;;10.07;1.48;;;14.90;99.90;;;;;;4993549;28;20038;-81
2021/06/15 02:47:53;;;;;;;9.20;1.55;;;14.90;99.90;;;;;;4997353;28;20101;-81
2021/06/15 02:50:20;;;;;;;13.80;2.20;;;14.90;99.90;;;;;;4999035;28;20041;-81
2021/06/15 02:52:51;;;;;;;10.13;1.63;;;14.90;99.90;;;;;;4998533;28;20095;-81
2021/06/15 02:55:32;;;;;;;7.20;2.10;;;14.90;99.90;;;;;;4997276;28;20039;-81
2021/06/15 02:57:59;;;;;;;10.02;1.63;;;14.90;99.90;;;;;;5001188;28;20046;-81
2021/06/15 03:00:24;;;;;;;9.68;1.20;;;14.90;99.90;;;;;;5003292;28;20098;-81
2021/06/15 03:02:50;;;;;;;10.73;2.95;;;14.90;99.90;;;;;;5000533;28;20039;-81
2021/06/15 03:05:17;;;;;;;12.15;1.38;;;14.80;99.90;;;;;;5005460;28;20068;-81
2021/06/15 03:07:47;;;;;;;9.45;2.17;;;14.90;99.90;;;;;;5002018;28;20038;-81
2021/06/15 03:10:14;;;;;;;6.20;1.08;;;14.80;99.90;;;;;;4999688;28;20034;-81
2021/06/15 03:12:59;;;;;;;10.93;1.73;;;14.80;99.90;;;;;;4998488;28;20605;-81
2021/06/15 03:15:43;;;;;;;13.18;2.20;;;14.80;99.90;;;;;;5003293;28;20031;-81
2021/06/15 03:18:20;;;;;;;8.95;1.17;;;14.80;99.90;;;;;;5003038;28;20041;-81
2021/06/15 03:20:48;;;;;;;9.55;1.60;;;14.80;99.90;;;;;;5000096;28;20054;-81
2021/06/15 03:23:36;;;;;;;10.15;1.48;;;14.80;99.90;;;;;;4995989;28;20045;-81
2021/06/15 03:26:13;;;;;;;6.18;1.42;;;14.80;99.90;;;;;;4996845;28;20047;-81
2021/06/15 03:28:59;;;;;;;;;;;14.70;99.90;;;;;;5000161;28;20055;-81
2021/06/15 03:31:47;;;;;;;6.90;1.58;;;14.70;99.90;;;;;;4996228;28;19922;-81
2021/06/15 03:34:20;;;;;;;6.65;1.23;;;14.80;99.90;;;;;;5007784;28;20109;-81
2021/06/15 03:36:47;;;;;;;12.93;2.33;;;14.70;99.90;;;;;;5000519;28;20781;-80
2021/06/15 03:39:16;;;;;;;11.32;2.08;;;14.70;99.90;;;;;;4996188;28;20042;-80
2021/06/15 03:41:42;;;;;;;13.50;1.67;;;14.70;99.90;;;;;;4998967;28;20026;-80
2021/06/15 03:44:09;;;;;;;11.73;2.55;;;14.70;99.90;;;;;;4997757;28;20049;-81
2021/06/15 03:46:37;;;;;;;10.00;2.60;;;14.80;99.90;;;;;;5000666;28;20045;-81
2021/06/15 03:49:08;;;;;;;8.32;1.50;;;14.70;99.90;;;;;;4998450;28;20039;-81
2021/06/15 03:51:38;;;;;;;10.02;1.42;;;14.70;99.90;;;;;;5001836;28;20830;-81
2021/06/15 03:54:10;;;;;;;10.07;1.77;;;14.80;99.90;;;;;;4999155;28;20042;-81
2021/06/15 03:56:47;;;;;;;9.88;1.40;;;14.80;99.90;;;;;;4997144;28;20042;-81
2021/06/15 03:59:21;;;;;;;9.65;1.67;;;14.80;99.90;;;;;;5002275;28;20045;-81
2021/06/15 04:01:50;;;;;;;10.77;2.03;;;14.80;99.90;;;;;;5000465;28;20080;-81
2021/06/15 04:04:17;;;;;;;12.25;2.17;;;14.80;99.90;;;;;;4998679;28;20030;-81
2021/06/15 04:06:51;;;;;;;10.70;1.58;;;14.80;99.90;;;;;;4998303;28;20042;-81
2021/06/15 04:09:26;;;;;;;8.88;1.73;;;14.80;99.90;;;;;;5003286;28;20088;-81
2021/06/15 04:11:57;;;;;;;12.60;2.15;;;14.80;99.90;;;;;;4999064;28;20557;-81
2021/06/15 04:14:23;;;;;;;11.52;2.00;;;15.30;99.90;;;;;;4998469;28;20031;-81
2021/06/15 04:16:51;;;;;;;10.73;2.30;;;14.90;99.90;;;;;;5001251;28;20047;-81
2021/06/15 04:19:24;;;;;;;9.85;1.50;;;14.90;99.90;;;;;;5007291;28;20046;-81
2021/06/15 04:21:54;;;;;;;12.55;2.17;;;14.90;99.90;;;;;;4998234;28;20965;-81
2021/06/15 04:24:24;;;;;;;10.82;2.13;;;14.90;99.90;;;;;;5006288;28;20068;-81
2021/06/15 04:26:52;;;;;;;12.43;1.77;;;15.00;99.90;;;;;;5004935;28;20031;-81
2021/06/15 04:29:18;;;;;;;8.32;1.40;;;15.00;99.90;;;;;;4998367;28;20047;-81
2021/06/15 04:31:46;;;;;;;9.88;1.60;;;15.00;99.90;;;;;;5002572;28;20116;-81
2021/06/15 04:34:22;;;;;;;;;;;15.00;99.90;;;;;;4997730;28;20038;-81
2021/06/15 04:37:00;;;;;;;8.00;1.50;;;15.10;99.90;;;;;;5002760;28;20294;-81
2021/06/15 04:39:49;;;;;;;21.55;4.15;;;15.10;99.90;;;;;;4994165;28;20042;-81
2021/06/15 04:42:30;;;;;;;8.50;1.40;;;15.10;99.90;;;;;;4994559;28;20049;-82
2021/06/15 04:44:57;;;;;;;11.15;1.58;;;15.20;99.90;;;;;;4991838;28;20037;-82
2021/06/15 04:47:26;;;;;;;11.20;2.15;;;15.20;99.90;;;;;;4995933;28;20109;-81
2021/06/15 04:50:09;;;;;;;;;;;15.30;99.90;;;;;;4998292;28;20038;-81
2021/06/15 04:52:35;;;;;;;;;;;15.30;99.90;;;;;;5000021;28;19926;-82
2021/06/15 04:55:03;;;;;;;9.88;1.45;;;15.40;99.90;;;;;;4991574;28;19921;-82
2021/06/15 04:57:36;;;;;;;12.88;1.50;;;15.50;99.90;;;;;;4998322;28;20030;-81
2021/06/15 05:00:04;;;;;;;11.88;2.22;;;16.20;99.90;;;;;;4999644;28;20042;-81
2021/06/15 05:02:31;;;;;;;8.75;1.60;;;15.60;99.90;;;;;;4997126;28;20533;-81
2021/06/15 05:04:58;;;;;;;9.55;1.90;;;15.60;99.90;;;;;;5000583;28;20034;-80
2021/06/15 05:07:28;;;;;;;10.00;2.22;;;15.70;99.90;;;;;;4999465;28;20102;-81
2021/06/15 05:10:05;;;;;;;11.95;2.15;;;16.10;99.90;;;;;;4996167;28;20039;-82
2021/06/15 05:12:38;;;;;;;10.60;2.40;;;15.80;99.90;;;;;;4993492;28;20102;-82
2021/06/15 05:15:09;;;;;;;8.05;2.10;;;15.90;99.90;;;;;;4995019;28;20498;-83
2021/06/15 05:17:36;;;;;;;10.75;2.15;;;16.00;99.90;;;;;;4986467;28;20142;-83
2021/06/15 05:20:06;;;;;;;11.52;2.15;;;16.10;99.90;;;;;;4989910;28;20092;-81
2021/06/15 05:22:44;;;;;;;13.70;2.05;;;16.20;99.90;;;;;;4985010;28;20054;-82
2021/06/15 05:25:11;;;;;;;10.15;2.40;;;16.20;99.90;;;;;;4977983;28;20042;-82
2021/06/15 05:27:37;;;;;;;10.27;2.28;;;16.20;99.80;;;;;;4982429;28;20034;-82
2021/06/15 05:30:04;;;;;;;11.45;2.25;;;16.50;99.70;;;;;;4982667;28;20034;-82
2021/06/15 05:32:31;;;;;;;13.80;2.72;;;16.60;99.50;;;;;;4984051;28;20034;-82
2021/06/15 05:34:59;;;;;;;9.90;1.58;;;16.70;99.30;;;;;;4983481;28;20038;-82
2021/06/15 05:37:26;;;;;;;16.02;2.22;;;16.80;99.00;;;;;;4985718;28;20117;-83
2021/06/15 05:39:52;;;;;;;15.05;2.30;;;16.50;98.00;;;;;;4983553;28;20035;-81
2021/06/15 05:42:17;;;;;;;14.02;1.75;;;17.00;98.10;;;;;;4984389;28;20042;-81
2021/06/15 05:44:43;;;;;;;11.15;2.03;;;17.30;97.70;;;;;;4978012;28;20045;-82
2021/06/15 05:47:09;;;;;;;12.45;2.03;;;17.00;97.10;;;;;;4981399;28;20086;-83
2021/06/15 05:53:35;;;;;;;13.02;2.38;;;17.00;96.60;;;;;;4980525;28;20052;-84
2021/06/15 05:56:01;;;;;;;14.13;2.55;;;17.10;96.80;;;;;;4972069;28;20058;-83
2021/06/15 05:58:29;;;;;;;9.57;2.10;;;17.30;97.00;;;;;;4985623;28;20125;-83
2021/06/15 06:01:03;;;;;;;16.40;2.42;;;17.40;96.30;;;;;;4975379;28;20134;-84
2021/06/15 06:03:34;;;;;;;10.25;2.15;;;17.60;95.80;;;;;;4978867;28;20666;-83
2021/06/15 06:08:51;;;;;;;9.90;1.75;;;17.80;95.20;;;;;;4975487;28;20035;-82
2021/06/15 06:11:47;;;;;;;10.80;2.42;;;18.00;94.50;;;;;;4969737;28;20663;-84
2021/06/15 06:14:13;;;;;;;9.90;1.85;;;18.20;94.70;;;;;;4971988;28;20035;-83
2021/06/15 06:16:43;;;;;;;9.30;1.80;;;18.50;94.10;;;;;;4971288;28;20593;-82
2021/06/15 06:19:15;;;;;;;11.77;1.85;;;18.80;93.60;;;;;;4966682;28;20038;-83
2021/06/15 06:21:43;;;;;;;10.30;2.22;;;19.10;93.10;;;;;;4973211;28;20046;-83
2021/06/15 06:24:10;;;;;;;11.70;2.90;;;19.50;92.40;;;;;;4974176;28;20054;-82
2021/06/15 06:26:36;;;;;;;11.20;2.03;;;19.70;91.80;;;;;;4978116;28;20042;-82
2021/06/15 06:29:03;;;;;;;11.50;1.70;;;19.90;90.40;;;;;;4974507;28;20062;-81
2021/06/15 06:31:29;;;;;;;8.43;1.35;;;19.80;89.60;;;;;;4973291;28;20093;-83
2021/06/15 06:33:56;;;;;;;13.13;1.88;;;19.90;89.30;;;;;;4963010;28;20057;-81
2021/06/15 06:36:22;;;;;;;11.00;1.48;;;20.00;88.20;;;;;;4973653;28;20038;-81
2021/06/15 06:38:49;;;;;;;5.63;1.15;;;20.00;86.50;;;;;;4973004;28;21222;-82
2021/06/15 06:41:15;;;;;;;8.82;1.60;;;20.00;86.80;;;;;;4969769;28;20034;-82
2021/06/15 06:43:41;;;;;;;7.68;1.63;;;20.00;87.30;;;;;;4973478;28;20125;-83
2021/06/15 06:46:07;;;;;;;10.55;1.85;;;20.00;84.90;;;;;;4973442;28;20438;-82
2021/06/15 06:48:33;;;;;;;11.40;1.65;;;20.00;84.70;;;;;;4977506;28;20097;-81
2021/06/15 06:50:58;;;;;;;8.35;2.10;;;20.10;88.30;;;;;;4973088;28;20038;-82
2021/06/15 06:53:24;;;;;;;9.35;1.35;;;20.40;85.50;;;;;;4972838;28;20062;-82
2021/06/15 06:55:50;;;;;;;8.13;2.33;;;20.70;86.60;;;;;;4975635;28;20117;-81
2021/06/15 06:58:16;;;;;;;10.80;2.10;;;21.10;87.10;;;;;;4977643;28;20102;-83
2021/06/15 07:00:41;;;;;;;8.40;2.05;;;21.30;80.70;;;;;;4968874;28;20102;-81
2021/06/15 07:03:07;;;;;;;13.20;1.90;;;21.40;78.90;;;;;;4967302;28;20513;-82
2021/06/15 07:05:33;;;;;;;12.73;1.95;;;21.20;77.60;;;;;;4963227;28;20039;-81
2021/06/15 07:07:58;;;;;;;11.65;1.67;;;21.10;78.80;;;;;;4967180;28;20054;-82
2021/06/15 07:10:24;;;;;;;9.35;1.85;;;21.00;78.60;;;;;;4968460;28;20050;-82
2021/06/15 07:12:50;;;;;;;8.02;1.58;;;20.90;77.50;;;;;;4979168;28;21044;-82
2021/06/15 07:15:16;;;;;;;6.90;1.27;;;21.00;77.50;;;;;;4967512;28;20499;-83
2021/06/15 07:17:42;;;;;;;4.25;1.23;;;21.10;80.20;;;;;;4968503;28;20040;-82
2021/06/15 07:20:09;;;;;;;5.70;1.35;;;21.30;76.90;;;;;;4984731;28;20058;-83
2021/06/15 07:22:36;;;;;;;4.65;1.02;;;21.60;76.90;;;;;;4963513;28;20411;-82
2021/06/15 07:25:03;;;;;;;6.88;1.67;;;21.80;77.20;;;;;;4971887;28;20072;-83
2021/06/15 07:27:49;;;;;;;9.07;1.55;;;22.00;76.40;;;;;;4971516;28;20161;-82
2021/06/15 07:30:18;;;;;;;6.93;1.30;;;22.30;75.50;;;;;;4974936;28;20104;-82
2021/06/15 07:33:04;;;;;;;8.57;1.25;;;22.40;72.10;;;;;;4963270;28;20046;-82
2021/06/15 07:35:49;;;;;;;;;;;22.30;67.50;;;;;;4962115;28;20102;-82
2021/06/15 07:38:35;;;;;;;10.23;1.70;;;22.10;70.60;;;;;;4961132;28;19929;-82
2021/06/15 07:41:02;;;;;;;7.13;1.65;;;22.10;72.30;;;;;;4978286;28;20053;-83
2021/06/15 07:43:29;;;;;;;10.43;1.70;;;22.20;72.90;;;;;;4979059;28;20046;-83
2021/06/15 07:46:15;;;;;;;7.47;1.77;;;22.50;75.60;;;;;;4976358;28;20074;-82
2021/06/15 07:49:01;;;;;;;6.85;1.67;;;22.90;75.20;;;;;;4968768;28;20047;-82
2021/06/15 07:51:34;;;;;;;9.10;1.92;;;23.10;67.70;;;;;;4976805;28;20046;-82
2021/06/15 07:54:20;;;;;;;9.30;1.63;;;22.70;67.80;;;;;;4966088;28;20092;-82
2021/06/15 07:57:06;;;;;;;7.30;1.52;;;22.50;71.30;;;;;;4977569;28;20054;-82
2021/06/15 07:59:32;;;;;;;8.48;2.35;;;22.40;73.30;;;;;;4971219;28;20439;-82
2021/06/15 08:02:17;;;;;;;18.77;1.75;;;22.50;74.80;;;;;;4966845;28;20046;-82
2021/06/15 08:04:44;;;;;;;9.55;1.77;;;22.50;67.80;;;;;;4977825;28;20511;-82
2021/06/15 08:07:18;;;;;;;7.50;1.58;;;22.20;69.80;;;;;;4978989;28;20042;-81
2021/06/15 08:09:44;;;;;;;7.25;2.03;;;22.00;70.40;;;;;;4975365;28;20065;-82
2021/06/15 08:12:10;;;;;;;7.78;1.50;;;22.10;70.00;;;;;;4980885;28;20034;-82
2021/06/15 08:14:36;;;;;;;8.60;2.10;;;22.20;69.30;;;;;;4972772;28;20089;-82
2021/06/15 08:17:22;;;;;;;9.50;2.17;;;22.50;70.80;;;;;;4970563;28;20046;-82
2021/06/15 08:19:48;;;;;;;10.85;2.15;;;22.50;70.70;;;;;;4974032;28;20049;-82
2021/06/15 08:22:14;;;;;;;11.40;2.28;;;22.70;69.70;;;;;;4976630;28;20037;-83
2021/06/15 08:25:00;;;;;;;10.35;1.60;;;22.90;69.80;;;;;;4967364;28;20073;-83
2021/06/15 08:27:26;;;;;;;8.35;1.65;;;23.00;68.30;;;;;;4972630;28;20418;-83
2021/06/15 08:29:52;;;;;;;6.88;1.73;;;23.10;69.40;;;;;;4977376;28;20035;-82
2021/06/15 08:32:38;;;;;;;7.25;1.38;;;23.30;69.70;;;;;;4968945;28;20050;-83
2021/06/15 08:35:05;;;;;;;7.25;1.70;;;23.50;68.60;;;;;;4976200;28;20700;-83
2021/06/15 08:37:33;;;;;;;10.00;2.17;;;23.30;67.90;;;;;;4980180;28;20039;-82
2021/06/15 08:40:16;;;;;;;8.35;2.28;;;23.30;68.40;;;;;;4973537;28;20039;-82
2021/06/15 08:42:42;;;;;;;10.82;2.03;;;23.40;68.40;;;;;;4977934;28;20038;-83
2021/06/15 08:45:13;;;;;;;10.65;1.70;;;23.50;67.10;;;;;;4976094;28;20081;-82
2021/06/15 08:47:40;;;;;;;7.32;1.30;;;23.20;65.20;;;;;;4974264;28;20259;-83
2021/06/15 08:50:07;;;;;;;15.32;2.05;;;23.10;66.20;;;;;;4972582;28;20061;-80
2021/06/15 08:52:35;;;;;;;6.72;1.60;;;22.90;66.20;;;;;;4972878;28;20030;-80
2021/06/15 08:55:02;;;;;;;9.40;1.98;;;22.90;66.20;;;;;;4976771;28;20529;-80
2021/06/15 08:57:28;;;;;;;10.40;2.03;;;22.80;64.50;;;;;;4978946;28;20100;-81
2021/06/15 09:00:00;;;;;;;9.60;1.98;;;22.80;65.20;;;;;;4977048;28;20041;-81
2021/06/15 09:02:26;;;;;;;6.75;1.90;;;22.80;63.90;;;;;;4975680;28;20031;-81
2021/06/15 09:04:51;;;;;;;7.25;1.85;;;22.60;63.70;;;;;;4980399;28;20472;-81
2021/06/15 09:07:17;;;;;;;8.88;1.73;;;22.60;66.40;;;;;;4979915;28;20041;-80
2021/06/15 09:09:45;;;;;;;10.98;2.38;;;22.70;67.40;;;;;;4969229;28;20504;-81
2021/06/15 09:12:15;;;;;;;8.68;1.92;;;22.80;67.10;;;;;;4974216;28;20086;-81
2021/06/15 09:14:50;;;;;;;11.55;2.20;;;22.80;64.90;;;;;;4976019;28;20043;-81
2021/06/15 09:17:25;;;;;;;9.13;2.05;;;22.90;64.30;;;;;;4978393;28;20397;-80
2021/06/15 09:19:51;;;;;;;5.25;1.83;;;22.90;66.00;;;;;;4978520;28;20038;-80
2021/06/15 09:22:29;;;;;;;6.78;2.08;;;23.00;64.90;;;;;;4975480;28;20039;-80
2021/06/15 09:24:55;;;;;;;8.05;1.73;;;23.20;62.50;;;;;;4978745;28;20464;-81
2021/06/15 09:27:30;;;;;;;10.30;1.55;;;23.30;65.70;;;;;;4975330;28;20038;-83
2021/06/15 09:29:57;;;;;;;7.07;1.65;;;23.50;62.50;;;;;;4977701;28;20104;-81
2021/06/15 09:32:25;;;;;;;7.53;1.20;;;23.50;61.80;;;;;;4973380;28;20039;-81
2021/06/15 09:35:00;;;;;;;9.73;2.08;;;23.50;62.90;;;;;;4973501;28;20151;-80
2021/06/15 09:37:43;;;;;;;8.95;2.53;;;23.40;61.00;;;;;;4974078;28;20038;-82
2021/06/15 09:40:30;;;;;;;7.78;2.05;;;23.60;61.50;;;;;;4975130;28;20070;-80
2021/06/15 09:42:59;;;;;;;8.52;1.75;;;23.30;60.10;;;;;;4980626;28;20057;-80
2021/06/15 09:45:46;;;;;;;10.32;1.67;;;23.10;62.70;;;;;;4974325;28;20042;-80
2021/06/15 09:48:34;;;;;;;8.10;1.55;;;23.20;63.00;;;;;;4974195;28;20041;-80
2021/06/15 09:51:11;;;;;;;7.38;1.77;;;23.10;62.20;;;;;;4980838;28;20030;-80
2021/06/15 09:53:40;;;;;;;5.10;1.20;;;23.20;65.30;;;;;;4978919;28;20034;-80
2021/06/15 09:56:12;;;;;;;5.63;1.45;;;23.20;63.90;;;;;;4994343;28;20117;-80
2021/06/15 09:58:49;;;;;;;7.90;1.75;;;23.00;65.50;;;;;;4972437;28;20304;-80
2021/06/15 10:01:34;;;;;;;8.77;1.85;;;23.20;63.70;;;;;;4974262;28;20054;-80
2021/06/15 10:04:09;;;;;;;8.57;1.60;;;23.00;62.70;;;;;;4969563;28;20046;-81
2021/06/15 10:06:36;;;;;;;7.90;1.30;;;23.00;61.50;;;;;;4975727;28;20093;-80
2021/06/15 10:09:03;;;;;;;9.45;2.05;;;23.00;64.20;;;;;;4976580;28;20256;-81
2021/06/15 10:11:31;;;;;;;7.65;1.50;;;22.70;62.30;;;;;;4989027;28;20038;-81
2021/06/15 10:13:57;;;;;;;8.90;1.30;;;22.60;64.60;;;;;;4974431;28;20050;-80
2021/06/15 10:16:23;;;;;;;7.70;1.60;;;22.50;63.80;;;;;;4971184;28;20034;-82
2021/06/15 10:18:49;;;;;;;7.38;1.35;;;22.60;62.60;;;;;;4973438;28;20047;-80
2021/06/15 10:21:16;;;;;;;6.57;1.63;;;23.00;64.30;;;;;;4974632;28;20039;-81
2021/06/15 10:23:43;;;;;;;8.07;1.80;;;23.10;65.00;;;;;;4974565;28;20097;-81
2021/06/15 10:26:10;;;;;;;7.22;1.60;;;23.20;65.40;;;;;;4971739;28;20042;-82
2021/06/15 10:28:37;;;;;;;6.72;1.52;;;23.20;63.20;;;;;;4972391;28;20046;-80
2021/06/15 10:31:33;;;;;;;7.63;1.77;;;23.00;62.80;;;;;;4973897;28;20042;-82
2021/06/15 10:33:59;;;;;;;9.70;1.98;;;23.20;64.70;;;;;;4976314;28;20096;-82
2021/06/15 10:36:46;;;;;;;6.47;1.23;;;23.20;61.30;;;;;;4971890;28;20047;-82
2021/06/15 10:39:38;;;;;;;10.65;1.73;;;23.30;65.10;;;;;;4980809;28;20442;-83
2021/06/15 10:42:15;;;;;;;5.47;1.23;;;23.30;62.10;;;;;;4979199;28;20054;-83
2021/06/15 10:44:42;;;;;;;5.22;1.48;;;23.10;62.40;;;;;;4972737;28;20042;-82
2021/06/15 10:47:11;;;;;;;7.32;2.08;;;23.20;61.60;;;;;;4978521;28;20039;-84
2021/06/15 10:49:57;;;;;;;9.25;1.83;;;23.20;60.10;;;;;;4980965;28;20598;-82
2021/06/15 10:52:24;;;;;;;10.95;2.40;;;23.20;63.10;;;;;;4964199;28;20046;-82
2021/06/15 10:54:49;;;;;;;7.03;1.55;;;23.40;65.50;;;;;;4984483;28;20522;-81
2021/06/15 10:57:18;;;;;;;9.60;1.30;;;23.30;62.80;;;;;;4984084;28;20055;-81
2021/06/15 11:00:06;;;;;;;7.63;1.27;;;23.10;63.10;;;;;;4988924;28;20989;-81
2021/06/15 11:02:33;;;;;;;6.95;1.88;;;23.10;63.00;;;;;;4985884;28;20149;-82
2021/06/15 11:05:41;;;;;;;9.38;1.63;;;23.00;62.40;;;;;;4985964;28;20042;-82
2021/06/15 11:08:22;;;;;;;8.32;1.98;;;23.10;59.90;;;;;;4996974;28;20045;-82
2021/06/15 11:10:48;;;;;;;7.22;1.65;;;23.00;62.00;;;;;;4983451;28;20284;-82
2021/06/15 11:13:14;;;;;;;8.40;1.25;;;23.10;59.90;;;;;;4985611;28;20077;-81
2021/06/15 11:15:57;;;;;;;6.57;1.33;;;23.20;61.20;;;;;;4983095;28;20042;-82
2021/06/15 11:18:22;;;;;;;8.93;1.42;;;23.30;61.40;;;;;;4988575;28;20026;-80
2021/06/15 11:20:48;;;;;;;9.35;1.67;;;23.40;62.50;;;;;;4970957;28;20061;-82
2021/06/15 11:23:18;;;;;;;4.57;0.90;;;23.60;62.90;;;;;;4983381;28;20049;-81
2021/06/15 11:25:53;;;;;;;8.02;2.45;;;23.80;62.60;;;;;;4984971;28;20042;-81
2021/06/15 11:28:56;;;;;;;4.60;1.10;;;24.10;60.00;;;;;;5004996;28;20042;-81
2021/06/15 11:31:22;;;;;;;7.28;1.38;;;24.20;59.70;;;;;;5005309;28;20470;-81
2021/06/15 11:34:03;;;;;;;8.68;2.13;;;24.20;57.00;;;;;;4987281;28;20046;-82
2021/06/15 11:36:44;;;;;;;6.05;1.33;;;24.20;57.00;;;;;;4986697;28;20031;-80
2021/06/15 11:39:37;;;;;;;4.68;1.17;;;24.20;57.60;;;;;;4984854;28;20095;-80
2021/06/15 11:42:18;;;;;;;7.55;1.45;;;24.30;59.60;;;;;;4983629;28;20050;-82
2021/06/15 11:44:53;;;;;;;5.50;1.13;;;24.50;60.60;;;;;;4981608;28;20050;-82
2021/06/15 11:47:37;;;;;;;6.45;1.58;;;24.60;60.00;;;;;;4989553;28;20038;-81
2021/06/15 11:50:21;;;;;;;5.18;1.40;;;24.80;60.10;;;;;;4982682;28;20532;-81
2021/06/15 11:53:01;;;;;;;6.70;1.30;;;24.80;54.30;;;;;;4981194;28;20043;-81
2021/06/15 11:55:36;;;;;;;6.90;1.30;;;24.60;55.60;;;;;;4986714;28;20034;-81
2021/06/15 11:58:13;;;;;;;4.22;1.05;;;24.30;55.70;;;;;;4988426;28;20031;-81
2021/06/15 12:00:41;;;;;;;5.68;0.98;;;24.10;55.00;;;;;;4985669;28;20054;-81
2021/06/15 12:03:13;;;;;;;8.93;1.80;;;23.80;57.10;;;;;;4982870;28;20042;-81
2021/06/15 12:05:41;;;;;;;7.32;1.33;;;23.60;58.40;;;;;;5000393;28;20047;-81
2021/06/15 12:08:08;;;;;;;6.43;1.75;;;23.40;59.70;;;;;;4988278;28;20048;-82
2021/06/15 12:10:34;;;;;;;6.82;1.15;;;23.50;59.90;;;;;;4982993;28;20864;-82
2021/06/15 12:13:08;;;;;;;6.13;1.30;;;23.80;61.00;;;;;;4986840;28;20091;-82
2021/06/15 12:15:34;;;;;;;6.80;1.58;;;23.70;60.00;;;;;;4988153;28;20049;-82
2021/06/15 12:18:01;;;;;;;6.57;1.40;;;23.90;57.80;;;;;;4988251;28;20047;-82
2021/06/15 12:20:29;;;;;;;4.95;1.55;;;24.20;57.30;;;;;;4990125;28;20042;-82
2021/06/15 12:22:55;;;;;;;10.48;2.28;;;23.80;55.80;;;;;;4987230;28;20042;-82
2021/06/15 12:25:30;;;;;;;6.40;1.85;;;23.80;59.10;;;;;;4983597;28;20152;-81
2021/06/15 12:28:12;;;;;;;6.15;1.55;;;23.90;58.60;;;;;;4985608;28;20062;-81
2021/06/15 12:30:41;;;;;;;4.40;1.48;;;23.70;57.00;;;;;;4989997;28;20050;-82
2021/06/15 12:33:08;;;;;;;5.30;1.23;;;23.50;58.10;;;;;;4987086;28;20045;-81
2021/06/15 12:35:34;;;;;;;4.22;1.00;;;22.90;57.10;;;;;;4986906;28;20586;-81
2021/06/15 12:38:14;;;;;;;5.38;1.13;;;22.70;59.10;;;;;;4984243;28;20035;-81
2021/06/15 12:40:42;;;;;;;9.10;2.05;;;22.50;60.60;;;;;;4991632;28;20125;-82
2021/06/15 12:43:08;;;;;;;6.95;1.65;;;22.80;62.20;;;;;;4985157;28;20034;-82
2021/06/15 12:45:36;;;;;;;7.97;1.48;;;22.90;60.20;;;;;;4982996;28;20131;-82
2021/06/15 12:48:20;;;;;;;6.57;1.90;;;23.10;60.40;;;;;;4985871;28;20041;-81
2021/06/15 12:50:47;;;;;;;6.90;1.33;;;23.20;58.40;;;;;;4991620;28;20097;-82
2021/06/15 12:53:12;;;;;;;9.38;1.10;;;23.20;58.30;;;;;;4985517;28;20042;-82
2021/06/15 12:55:42;;;;;;;3.40;1.02;;;23.30;60.20;;;;;;4987288;28;20046;-81
2021/06/15 12:58:08;;;;;;;5.63;1.48;;;23.10;61.30;;;;;;4984744;28;20791;-82
2021/06/15 13:00:41;;;;;;;5.30;1.17;;;23.10;60.20;;;;;;4986724;28;20085;-82
2021/06/15 13:03:14;;;;;;;5.53;1.33;;;23.30;61.90;;;;;;4983610;28;20053;-82
2021/06/15 13:05:41;;;;;;;6.32;1.83;;;23.50;61.90;;;;;;4986104;28;20038;-83
2021/06/15 13:08:06;;;;;;;4.97;0.93;;;23.60;58.90;;;;;;4985426;28;20034;-81
2021/06/15 13:10:32;;;;;;;4.60;1.13;;;23.70;61.80;;;;;;4983140;28;20038;-81
2021/06/15 13:13:02;;;;;;;5.63;1.20;;;24.00;60.60;;;;;;4985738;28;20081;-82
2021/06/15 13:15:29;;;;;;;6.32;0.80;;;24.10;58.50;;;;;;4981285;28;20047;-81